createdAt,value
2022-11-17T00:01:55.096Z,12.00
2022-11-17T00:04:38.004Z,11.10
2022-11-17T00:10:03.882Z,10.90
2022-11-17T00:13:05.423Z,10.50
2022-11-17T00:15:48.337Z,10.70
2022-11-17T00:18:49.895Z,11.90
2022-11-17T00:21:33.542Z,12.00
2022-11-17T00:24:17.155Z,10.50
2022-11-17T00:27:03.315Z,11.90
2022-11-17T00:29:46.102Z,11.50
2022-11-17T00:35:30.336Z,12.00
2022-11-17T00:40:59.525Z,12.50
2022-11-17T00:43:42.362Z,11.80
2022-11-17T00:49:09.770Z,12.00
2022-11-17T00:51:55.347Z,12.40
2022-11-17T00:54:38.120Z,11.70
2022-11-17T01:00:04.408Z,12.10
2022-11-17T01:02:47.210Z,12.80
2022-11-17T01:08:16.125Z,11.80
2022-11-17T01:11:06.500Z,12.90
2022-11-17T01:13:49.309Z,12.00
2022-11-17T01:19:17.489Z,13.70
2022-11-17T01:22:00.301Z,13.00
2022-11-17T01:24:43.404Z,14.30
2022-11-17T01:27:26.437Z,14.50
2022-11-17T01:30:10.173Z,12.70
2022-11-17T01:32:52.992Z,13.50
2022-11-17T01:38:18.608Z,12.80
2022-11-17T01:43:46.113Z,13.30
2022-11-17T01:46:39.127Z,12.60
2022-11-17T01:52:10.655Z,13.40
2022-11-17T01:54:55.118Z,13.20
2022-11-17T01:57:46.952Z,13.50
2022-11-17T02:00:30.382Z,12.50
2022-11-17T02:03:14.037Z,12.50
2022-11-17T02:06:17.293Z,12.10
2022-11-17T02:11:44.294Z,13.00
2022-11-17T02:14:28.184Z,13.60
2022-11-17T02:17:14.408Z,13.90
2022-11-17T02:20:12.201Z,12.50
2022-11-17T02:23:14.881Z,13.70
2022-11-17T02:26:19.781Z,12.40
2022-11-17T02:29:30.358Z,12.80
2022-11-17T02:32:44.787Z,12.60
2022-11-17T02:35:36.502Z,13.10
2022-11-17T02:38:25.558Z,12.30
2022-11-17T02:41:23.089Z,11.80
2022-11-17T02:44:16.180Z,12.80
2022-11-17T02:49:59.787Z,11.70
2022-11-17T02:52:42.801Z,13.30
2022-11-17T02:55:25.844Z,12.40
2022-11-17T02:58:12.261Z,12.00
2022-11-17T03:01:10.358Z,12.20
2022-11-17T03:04:25.321Z,12.00
2022-11-17T03:07:17.610Z,12.30
2022-11-17T03:10:49.593Z,11.80
2022-11-17T03:14:02.900Z,12.20
2022-11-17T03:17:10.972Z,11.10
2022-11-17T03:19:56.687Z,12.10
2022-11-17T03:22:42.174Z,11.90
2022-11-17T03:25:27.331Z,11.60
2022-11-17T03:28:12.267Z,13.30
2022-11-17T03:30:57.071Z,11.70
2022-11-17T03:33:41.720Z,11.80
2022-11-17T03:36:32.877Z,12.40
2022-11-17T03:39:17.889Z,11.70
2022-11-17T03:42:14.640Z,12.50
2022-11-17T03:45:04.052Z,12.20
2022-11-17T03:47:51.455Z,12.10
2022-11-17T03:50:38.466Z,11.10
2022-11-17T03:53:21.859Z,12.40
2022-11-17T03:56:26.398Z,10.80
2022-11-17T03:59:25.050Z,11.90
2022-11-17T04:02:08.069Z,11.90
2022-11-17T04:05:05.947Z,11.60
2022-11-17T04:07:49.187Z,11.10
2022-11-17T04:10:51.934Z,12.20
2022-11-17T04:13:53.535Z,11.70
2022-11-17T04:16:36.323Z,10.70
2022-11-17T04:22:02.016Z,12.00
2022-11-17T04:27:46.003Z,11.30
2022-11-17T04:30:28.869Z,11.40
2022-11-17T04:33:11.634Z,11.40
2022-11-17T04:38:40.476Z,10.70
2022-11-17T04:41:43.963Z,12.80
2022-11-17T04:44:28.723Z,12.70
2022-11-17T04:47:11.533Z,11.20
2022-11-17T04:49:54.447Z,11.50
2022-11-17T04:52:37.343Z,10.10
2022-11-17T04:55:21.125Z,12.60
2022-11-17T04:58:04.009Z,11.80
2022-11-17T05:00:46.750Z,11.30
2022-11-17T05:06:19.249Z,11.10
2022-11-17T05:09:06.033Z,10.90
2022-11-17T05:12:07.446Z,11.00
2022-11-17T05:14:50.568Z,11.20
2022-11-17T05:17:33.579Z,10.30
2022-11-17T05:20:18.454Z,11.40
2022-11-17T05:23:23.659Z,10.20
2022-11-17T05:26:06.521Z,10.60
2022-11-17T05:31:32.402Z,11.10
2022-11-17T05:36:58.848Z,11.40
2022-11-17T05:42:24.575Z,9.90
2022-11-17T05:45:08.426Z,10.30
2022-11-17T05:47:51.191Z,12.00
2022-11-17T05:53:18.484Z,10.50
2022-11-17T05:59:24.823Z,11.10
2022-11-17T06:02:16.044Z,11.10
2022-11-17T06:04:59.160Z,10.80
2022-11-17T06:07:42.178Z,11.00
2022-11-17T06:10:26.115Z,11.20
2022-11-17T06:13:09.151Z,11.10
2022-11-17T06:15:54.189Z,10.90
2022-11-17T06:18:45.352Z,11.10
2022-11-17T06:21:43.276Z,10.10
2022-11-17T06:24:33.348Z,10.70
2022-11-17T06:27:17.577Z,11.30
2022-11-17T06:30:03.569Z,9.90
2022-11-17T06:32:48.038Z,10.60
2022-11-17T06:35:33.610Z,9.30
2022-11-17T06:38:16.430Z,10.40
2022-11-17T06:43:42.126Z,9.40
2022-11-17T06:49:08.617Z,9.40
2022-11-17T06:51:51.426Z,9.70
2022-11-17T06:57:17.015Z,9.00
2022-11-17T07:02:44.890Z,9.30
2022-11-17T07:05:28.316Z,8.80
2022-11-17T07:08:12.510Z,9.20
2022-11-17T07:10:55.313Z,9.10
2022-11-17T07:16:23.744Z,8.20
2022-11-17T07:19:08.517Z,9.00
2022-11-17T07:21:51.461Z,8.80
2022-11-17T07:24:34.274Z,9.30
2022-11-17T07:29:59.892Z,8.50
2022-11-17T07:35:25.492Z,8.90
2022-11-17T07:40:51.526Z,9.10
2022-11-17T07:43:35.179Z,10.20
2022-11-17T07:46:18.044Z,10.00
2022-11-17T07:49:00.986Z,9.40
2022-11-17T07:51:43.804Z,8.50
2022-11-17T07:57:09.385Z,8.40
2022-11-17T07:59:52.268Z,9.10
2022-11-17T08:02:35.502Z,9.10
2022-11-17T08:05:18.680Z,9.30
2022-11-17T08:08:01.695Z,8.90
2022-11-17T08:10:44.509Z,9.90
2022-11-17T08:16:13.714Z,9.90
2022-11-17T08:18:57.764Z,11.30
2022-11-17T08:21:41.427Z,10.50
2022-11-17T08:24:24.304Z,9.50
2022-11-17T08:27:07.318Z,9.80
2022-11-17T08:29:50.334Z,11.90
2022-11-17T08:32:33.760Z,10.30
2022-11-17T08:35:21.177Z,11.00
2022-11-17T08:38:04.458Z,10.70
2022-11-17T08:40:47.824Z,10.90
2022-11-17T08:43:30.952Z,12.40
2022-11-17T08:46:14.267Z,11.00
2022-11-17T08:48:57.442Z,11.90
2022-11-17T08:51:41.415Z,11.60
2022-11-17T08:54:24.444Z,11.00
2022-11-17T08:57:07.512Z,11.60
2022-11-17T08:59:51.001Z,11.50
2022-11-17T09:02:33.902Z,10.60
2022-11-17T09:05:16.882Z,11.40
2022-11-17T09:08:10.644Z,12.40
2022-11-17T09:11:07.645Z,11.10
2022-11-17T09:13:50.629Z,10.30
2022-11-17T09:16:33.753Z,10.80
2022-11-17T09:19:17.289Z,10.90
2022-11-17T09:22:00.109Z,9.80
2022-11-17T09:27:25.841Z,9.60
2022-11-17T09:35:34.764Z,9.50
2022-11-17T09:41:09.498Z,8.80
2022-11-17T09:44:12.470Z,7.60
2022-11-17T09:47:14.427Z,7.80
2022-11-17T09:50:03.472Z,8.60
2022-11-17T09:53:10.242Z,7.60
2022-11-17T09:55:58.161Z,8.60
2022-11-17T09:58:52.740Z,8.40
2022-11-17T10:01:35.680Z,8.20
2022-11-17T10:04:19.519Z,8.30
2022-11-17T10:07:04.021Z,7.70
2022-11-17T10:09:50.386Z,8.20
2022-11-17T10:12:42.360Z,8.00
2022-11-17T10:15:33.559Z,7.60
2022-11-17T10:18:17.603Z,7.50
2022-11-17T10:21:05.444Z,7.10
2022-11-17T10:23:56.558Z,6.80
2022-11-17T10:26:49.580Z,7.00
2022-11-17T10:32:15.611Z,6.40
2022-11-17T10:35:17.658Z,7.10
2022-11-17T10:38:17.873Z,7.20
2022-11-17T10:41:03.276Z,6.90
2022-11-17T10:44:06.628Z,6.90
2022-11-17T10:47:02.669Z,8.40
2022-11-17T10:49:46.051Z,9.80
2022-11-17T10:52:28.818Z,8.10
2022-11-17T10:58:26.814Z,8.50
2022-11-17T11:01:10.205Z,9.60
2022-11-17T11:03:52.997Z,9.90
2022-11-17T11:07:14.224Z,9.10
2022-11-17T11:10:03.613Z,9.00
2022-11-17T11:12:59.347Z,8.90
2022-11-17T11:15:44.817Z,7.80
2022-11-17T11:18:30.358Z,8.40
2022-11-17T11:21:18.309Z,9.30
2022-11-17T11:24:07.870Z,8.00
2022-11-17T11:26:50.612Z,9.00
2022-11-17T11:32:50.803Z,8.10
2022-11-17T11:35:53.137Z,8.50
2022-11-17T11:39:11.685Z,8.10
2022-11-17T11:42:08.416Z,7.20
2022-11-17T11:45:18.338Z,8.00
2022-11-17T11:48:23.458Z,7.60
2022-11-17T11:51:19.324Z,8.90
2022-11-17T11:54:28.986Z,8.00
2022-11-17T11:57:15.877Z,7.40
2022-11-17T12:00:04.452Z,7.20
2022-11-17T12:03:23.821Z,7.30
2022-11-17T12:06:44.839Z,7.50
2022-11-17T12:09:40.856Z,6.10
2022-11-17T12:12:31.791Z,6.50
2022-11-17T12:15:20.872Z,6.20
2022-11-17T12:18:30.163Z,6.10
2022-11-17T12:21:21.869Z,7.70
2022-11-17T12:24:18.729Z,7.20
2022-11-17T12:27:32.536Z,7.30
2022-11-17T12:30:30.785Z,6.70
2022-11-17T12:33:13.594Z,8.60
2022-11-17T12:39:01.464Z,8.60
2022-11-17T12:41:47.248Z,8.50
2022-11-17T12:44:38.945Z,8.40
2022-11-17T12:47:28.431Z,8.50
2022-11-17T12:50:17.387Z,9.10
2022-11-17T12:53:14.886Z,9.60
2022-11-17T12:56:19.597Z,8.50
2022-11-17T12:59:28.501Z,9.30
2022-11-17T13:02:42.288Z,8.40
2022-11-17T13:05:28.386Z,9.20
2022-11-17T13:08:18.919Z,8.10
2022-11-17T13:11:14.516Z,7.70
2022-11-17T13:14:16.003Z,8.40
2022-11-17T13:17:00.536Z,9.00
2022-11-17T13:19:44.059Z,9.60
2022-11-17T13:22:27.142Z,9.80
2022-11-17T13:25:21.741Z,11.30
2022-11-17T13:28:06.069Z,10.70
2022-11-17T13:30:48.823Z,10.20
2022-11-17T13:36:24.947Z,10.70
2022-11-17T13:39:17.167Z,10.60
2022-11-17T13:42:02.490Z,12.80
2022-11-17T13:44:46.273Z,13.50
2022-11-17T13:47:37.824Z,13.40
2022-11-17T13:50:33.816Z,14.10
2022-11-17T13:53:25.685Z,13.50
2022-11-17T13:56:21.121Z,13.60
2022-11-17T13:59:21.529Z,12.70
2022-11-17T14:02:13.424Z,11.70
2022-11-17T14:05:14.517Z,11.80
2022-11-17T14:08:10.325Z,11.40
2022-11-17T14:11:05.584Z,11.40
2022-11-17T14:13:52.364Z,12.60
2022-11-17T14:16:39.194Z,13.10
2022-11-17T14:19:32.340Z,12.50
2022-11-17T14:25:05.956Z,12.50
2022-11-17T14:27:52.167Z,14.20
2022-11-17T14:30:36.275Z,13.20
2022-11-17T14:33:19.405Z,14.10
2022-11-17T14:36:02.512Z,13.80
2022-11-17T14:38:46.681Z,13.90
2022-11-17T14:41:29.591Z,13.10
2022-11-17T14:44:13.075Z,15.00
2022-11-17T14:46:55.913Z,14.90
2022-11-17T14:52:21.438Z,15.10
2022-11-17T15:00:31.592Z,17.20
2022-11-17T15:03:14.616Z,16.30
2022-11-17T15:05:57.641Z,14.90
2022-11-17T15:11:24.494Z,14.20
2022-11-17T15:14:07.337Z,14.60
2022-11-17T15:19:33.034Z,13.70
2022-11-17T15:22:16.140Z,14.80
2022-11-17T15:24:59.172Z,15.30
2022-11-17T15:27:41.915Z,13.80
2022-11-17T15:33:07.607Z,12.40
2022-11-17T15:38:43.083Z,14.30
2022-11-17T15:41:31.354Z,14.00
2022-11-17T15:44:15.914Z,15.70
2022-11-17T15:46:58.962Z,15.50
2022-11-17T15:52:48.715Z,15.20
2022-11-17T15:55:29.549Z,14.90
2022-11-17T15:58:12.315Z,15.20
2022-11-17T16:03:39.320Z,14.30
2022-11-17T16:06:22.491Z,13.90
2022-11-17T16:09:09.077Z,13.20
2022-11-17T16:11:51.924Z,13.00
2022-11-17T16:14:34.802Z,13.00
2022-11-17T16:20:02.478Z,12.10
2022-11-17T16:22:45.344Z,12.60
2022-11-17T16:28:12.283Z,12.70
2022-11-17T16:30:57.334Z,14.30
2022-11-17T16:33:40.541Z,15.30
2022-11-17T16:36:25.706Z,16.10
2022-11-17T16:39:15.257Z,16.80
2022-11-17T16:42:00.279Z,22.10
2022-11-17T16:44:43.330Z,18.70
2022-11-17T16:47:26.160Z,15.50
2022-11-17T16:52:52.000Z,16.30
2022-11-17T16:55:36.400Z,17.00
2022-11-17T16:58:19.124Z,16.00
2022-11-17T17:01:12.555Z,16.00
2022-11-17T17:04:01.212Z,17.30
2022-11-17T17:06:44.698Z,18.00
2022-11-17T17:09:28.206Z,20.30
2022-11-17T17:12:11.229Z,19.50
2022-11-17T17:14:54.038Z,21.50
2022-11-17T17:20:19.666Z,20.30
2022-11-17T17:23:03.307Z,20.80
2022-11-17T17:25:46.311Z,20.70
2022-11-17T17:31:18.190Z,19.70
2022-11-17T17:34:08.788Z,21.10
2022-11-17T17:36:51.628Z,21.00
2022-11-17T17:42:17.510Z,21.10
2022-11-17T17:45:00.838Z,20.30
2022-11-17T17:47:43.848Z,19.50
2022-11-17T17:50:26.661Z,19.20
2022-11-17T17:55:52.220Z,19.30
2022-11-17T17:58:40.527Z,18.80
2022-11-17T18:01:25.580Z,17.60
2022-11-17T18:04:14.341Z,20.20
2022-11-17T18:07:01.630Z,18.60
2022-11-17T18:09:44.666Z,19.30
2022-11-17T18:15:14.487Z,18.30
2022-11-17T18:17:57.250Z,18.60
2022-11-17T18:23:23.891Z,18.30
2022-11-17T18:29:13.571Z,18.40
2022-11-17T18:32:00.424Z,17.50
2022-11-17T18:34:43.235Z,17.20
2022-11-17T18:40:09.592Z,17.80
2022-11-17T18:42:52.710Z,19.20
2022-11-17T18:45:39.279Z,17.80
2022-11-17T18:48:22.103Z,19.00
2022-11-17T18:54:05.151Z,19.90
2022-11-17T18:56:50.095Z,18.50
2022-11-17T18:59:32.901Z,18.60
2022-11-17T19:04:59.178Z,17.30
2022-11-17T19:07:42.043Z,19.90
2022-11-17T19:10:24.966Z,23.40
2022-11-17T19:15:52.445Z,19.30
2022-11-17T19:18:35.985Z,20.50
2022-11-17T19:21:25.581Z,21.20
2022-11-17T19:24:09.103Z,19.50
2022-11-17T19:26:52.074Z,19.70
2022-11-17T19:29:35.192Z,19.00
2022-11-17T19:32:18.073Z,19.80
2022-11-17T19:35:11.843Z,19.80
2022-11-17T19:37:58.296Z,19.40
2022-11-17T19:40:41.049Z,18.90
2022-11-17T19:46:09.768Z,18.70
2022-11-17T19:48:53.003Z,20.80
2022-11-17T19:51:37.258Z,20.60
2022-11-17T19:54:20.972Z,20.70
2022-11-17T19:57:04.167Z,21.00
2022-11-17T19:59:47.145Z,21.60
2022-11-17T20:02:30.943Z,22.60
2022-11-17T20:05:13.808Z,23.30
2022-11-17T20:07:56.905Z,22.60
2022-11-17T20:10:39.655Z,22.30
2022-11-17T20:13:22.441Z,23.60
2022-11-17T20:18:57.052Z,21.80
2022-11-17T20:21:40.041Z,23.60
2022-11-17T20:24:23.884Z,24.30
2022-11-17T20:27:10.372Z,23.00
2022-11-17T20:29:53.185Z,21.60
2022-11-17T20:35:20.242Z,22.40
2022-11-17T20:38:04.122Z,21.40
2022-11-17T20:40:46.991Z,20.60
2022-11-17T20:46:13.844Z,19.20
2022-11-17T20:48:56.760Z,20.50
2022-11-17T20:51:40.695Z,21.00
2022-11-17T20:54:23.510Z,21.80
2022-11-17T20:59:49.088Z,18.40
2022-11-17T21:05:15.009Z,19.60
2022-11-17T21:10:40.589Z,19.60
2022-11-17T21:13:25.044Z,21.40
2022-11-17T21:16:14.139Z,19.90
2022-11-17T21:18:57.210Z,20.70
2022-11-17T21:21:40.327Z,22.40
2022-11-17T21:24:23.070Z,20.40
2022-11-17T21:29:48.662Z,23.20
2022-11-17T21:35:14.321Z,19.90
2022-11-17T21:37:57.817Z,21.20
2022-11-17T21:40:40.628Z,23.80
2022-11-17T21:46:08.811Z,22.10
2022-11-17T21:48:52.950Z,22.20
2022-11-17T21:51:38.610Z,21.50
2022-11-17T21:54:21.876Z,22.30
2022-11-17T21:57:04.665Z,22.50
2022-11-17T22:02:30.493Z,22.70
2022-11-17T22:05:13.408Z,30.10
2022-11-17T22:07:56.219Z,29.60
2022-11-17T22:13:21.640Z,26.80
2022-11-17T22:16:11.530Z,28.80
2022-11-17T22:18:54.274Z,25.90
2022-11-17T22:24:21.305Z,26.90
2022-11-17T22:27:04.202Z,25.30
2022-11-17T22:29:46.942Z,23.80
2022-11-17T22:32:29.832Z,24.20
2022-11-17T22:37:55.546Z,22.50
2022-11-17T22:40:39.663Z,23.80
2022-11-17T22:43:22.500Z,25.00
2022-11-17T22:48:50.411Z,25.00
2022-11-17T22:51:51.791Z,24.20
2022-11-17T22:54:35.447Z,23.20
2022-11-17T22:57:18.256Z,23.60
2022-11-17T23:00:01.058Z,21.60
2022-11-17T23:02:43.881Z,24.00
2022-11-17T23:08:33.554Z,24.40
2022-11-17T23:11:36.091Z,22.30
2022-11-17T23:14:19.157Z,22.80
2022-11-17T23:17:01.792Z,24.20
2022-11-17T23:19:45.481Z,25.00
2022-11-17T23:22:28.284Z,23.60
2022-11-17T23:27:53.515Z,19.70
2022-11-17T23:30:36.215Z,23.20
2022-11-17T23:33:18.838Z,24.40
2022-11-17T23:36:06.847Z,21.90
2022-11-17T23:38:50.725Z,23.60
2022-11-17T23:41:33.321Z,24.10
2022-11-17T23:44:16.013Z,24.50
2022-11-17T23:46:58.711Z,25.10
2022-11-17T23:49:41.321Z,25.00
2022-11-17T23:52:24.054Z,24.30
2022-11-17T23:55:07.456Z,24.10
2022-11-17T23:57:50.121Z,25.60
